createdAt,value
2022-10-11T00:01:18.649Z,102453.81
2022-10-11T00:03:45.146Z,102442.03
2022-10-11T00:06:11.680Z,102454.19
2022-10-11T00:08:38.270Z,102454.59
2022-10-11T00:11:08.062Z,102452.66
2022-10-11T00:13:34.927Z,102456.00
2022-10-11T00:16:01.767Z,102450.09
2022-10-11T00:18:28.393Z,102449.03
2022-10-11T00:21:06.604Z,102447.66
2022-10-11T00:23:33.482Z,102453.38
2022-10-11T00:26:02.209Z,102457.16
2022-10-11T00:28:29.365Z,102451.88
2022-10-11T00:30:56.636Z,102452.66
2022-10-11T00:33:23.094Z,102461.22
2022-10-11T00:35:49.836Z,102452.53
2022-10-11T00:38:16.542Z,102466.53
2022-10-11T00:40:43.494Z,102460.81
2022-10-11T00:43:23.612Z,102463.34
2022-10-11T00:46:11.476Z,102465.81
2022-10-11T00:49:21.463Z,102470.47
2022-10-11T00:51:53.077Z,102481.88
2022-10-11T00:54:23.804Z,102479.53
2022-10-11T00:56:55.956Z,102476.81
2022-10-11T00:59:26.341Z,102478.69
2022-10-11T01:01:52.900Z,102472.94
2022-10-11T01:04:19.389Z,102475.19
2022-10-11T01:06:47.088Z,102484.59
2022-10-11T01:09:14.292Z,102493.31
2022-10-11T01:11:43.413Z,102485.16
2022-10-11T01:14:37.667Z,102499.34
2022-10-11T01:17:28.180Z,102490.78
2022-10-11T01:20:19.421Z,102494.34
2022-10-11T01:23:24.409Z,102484.59
2022-10-11T01:26:26.008Z,102486.28
2022-10-11T01:29:19.868Z,102490.41
2022-10-11T01:31:53.847Z,102489.94
2022-10-11T01:34:32.830Z,102492.84
2022-10-11T01:37:08.684Z,102492.63
2022-10-11T01:39:51.869Z,102495.81
2022-10-11T01:42:19.656Z,102489.25
2022-10-11T01:44:49.462Z,102493.88
2022-10-11T01:47:21.009Z,102492.41
2022-10-11T01:49:57.426Z,102500.41
2022-10-11T01:52:26.701Z,102499.56
2022-10-11T01:55:12.024Z,102493.72
2022-10-11T01:57:55.363Z,102493.25
2022-10-11T02:00:25.837Z,102499.28
2022-10-11T02:02:58.397Z,102496.91
2022-10-11T02:05:50.839Z,102503.66
2022-10-11T02:09:07.186Z,102511.19
2022-10-11T02:11:36.261Z,102505.13
2022-10-11T02:14:10.896Z,102501.75
2022-10-11T02:16:52.182Z,102520.81
2022-10-11T02:19:22.320Z,102515.53
2022-10-11T02:21:54.507Z,102514.56
2022-10-11T02:24:37.569Z,102514.69
2022-10-11T02:27:06.124Z,102508.28
2022-10-11T02:29:35.759Z,102510.34
2022-10-11T02:32:02.424Z,102515.31
2022-10-11T02:34:35.984Z,102519.59
2022-10-11T02:37:10.097Z,102512.78
2022-10-11T02:39:47.294Z,102516.88
2022-10-11T02:42:26.852Z,102522.31
2022-10-11T02:45:30.402Z,102523.66
2022-10-11T02:47:58.048Z,102513.19
2022-10-11T02:50:24.528Z,102519.66
2022-10-11T02:52:50.987Z,102516.28
2022-10-11T02:55:17.481Z,102503.38
2022-10-11T02:57:44.026Z,102518.84
2022-10-11T03:00:11.395Z,102516.13
2022-10-11T03:02:37.880Z,102518.19
2022-10-11T03:05:04.710Z,102513.97
2022-10-11T03:07:31.230Z,102521.81
2022-10-11T03:09:57.771Z,102525.56
2022-10-11T03:12:24.243Z,102524.22
2022-10-11T03:14:50.691Z,102523.22
2022-10-11T03:17:35.606Z,102521.03
2022-10-11T03:20:04.475Z,102524.22
2022-10-11T03:22:30.934Z,102528.31
2022-10-11T03:25:02.521Z,102524.59
2022-10-11T03:27:30.501Z,102535.81
2022-10-11T03:29:57.681Z,102525.31
2022-10-11T03:32:24.186Z,102539.06
2022-10-11T03:34:50.656Z,102539.09
2022-10-11T03:37:17.146Z,102535.53
2022-10-11T03:39:45.419Z,102537.25
2022-10-11T03:42:12.527Z,102537.59
2022-10-11T03:44:39.014Z,102542.72
2022-10-11T03:47:05.873Z,102539.84
2022-10-11T03:49:32.355Z,102542.06
2022-10-11T03:51:59.099Z,102545.78
2022-10-11T03:54:25.840Z,102544.78
2022-10-11T03:56:52.433Z,102544.44
2022-10-11T03:59:18.902Z,102545.47
2022-10-11T04:01:45.398Z,102552.97
2022-10-11T04:04:11.983Z,102555.19
2022-10-11T04:06:38.528Z,102558.06
2022-10-11T04:09:05.048Z,102547.03
2022-10-11T04:11:31.505Z,102557.06
2022-10-11T04:13:58.217Z,102556.38
2022-10-11T04:16:24.710Z,102554.84
2022-10-11T04:18:51.492Z,102552.31
2022-10-11T04:21:17.970Z,102552.16
2022-10-11T04:23:44.515Z,102567.25
2022-10-11T04:26:10.984Z,102570.31
2022-10-11T04:28:37.489Z,102569.84
2022-10-11T04:31:05.096Z,102578.31
2022-10-11T04:33:31.556Z,102581.06
2022-10-11T04:35:58.018Z,102581.22
2022-10-11T04:38:24.495Z,102576.81
2022-10-11T04:40:51.104Z,102570.88
2022-10-11T04:43:18.552Z,102587.84
2022-10-11T04:45:45.084Z,102581.56
2022-10-11T04:48:11.524Z,102585.97
2022-10-11T04:50:37.995Z,102583.44
2022-10-11T04:53:07.479Z,102586.66
2022-10-11T04:55:33.947Z,102587.22
2022-10-11T04:58:02.017Z,102583.44
2022-10-11T05:00:28.605Z,102589.38
2022-10-11T05:02:55.178Z,102581.94
2022-10-11T05:05:21.640Z,102589.06
2022-10-11T05:07:48.092Z,102591.09
2022-10-11T05:10:14.872Z,102589.75
2022-10-11T05:12:41.344Z,102593.31
2022-10-11T05:15:08.378Z,102594.16
2022-10-11T05:17:35.033Z,102590.06
2022-10-11T05:20:01.650Z,102596.34
2022-10-11T05:22:28.169Z,102599.41
2022-10-11T05:24:54.623Z,102595.16
2022-10-11T05:27:21.131Z,102601.78
2022-10-11T05:29:47.649Z,102602.13
2022-10-11T05:32:14.116Z,102604.16
2022-10-11T05:34:40.576Z,102600.94
2022-10-11T05:37:07.214Z,102605.69
2022-10-11T05:39:33.675Z,102597.34
2022-10-11T05:42:00.157Z,102618.25
2022-10-11T05:44:26.672Z,102609.91
2022-10-11T05:46:53.143Z,102615.00
2022-10-11T05:49:19.588Z,102612.28
2022-10-11T05:51:46.041Z,102623.13
2022-10-11T05:54:12.514Z,102625.19
2022-10-11T05:56:38.972Z,102621.81
2022-10-11T05:59:06.221Z,102626.38
2022-10-11T06:01:32.769Z,102617.56
2022-10-11T06:03:59.296Z,102624.84
2022-10-11T06:06:25.946Z,102623.31
2022-10-11T06:08:52.382Z,102629.59
2022-10-11T06:11:27.279Z,102638.41
2022-10-11T06:13:55.135Z,102630.59
2022-10-11T06:16:21.743Z,102627.91
2022-10-11T06:18:48.179Z,102629.59
2022-10-11T06:21:15.461Z,102646.22
2022-10-11T06:23:41.944Z,102639.94
2022-10-11T06:26:09.329Z,102636.53
2022-10-11T06:28:36.800Z,102647.38
2022-10-11T06:31:05.379Z,102656.22
2022-10-11T06:33:32.404Z,102648.09
2022-10-11T06:36:01.071Z,102667.59
2022-10-11T06:38:27.588Z,102662.16
2022-10-11T06:40:54.326Z,102659.97
2022-10-11T06:43:21.179Z,102665.03
2022-10-11T06:45:47.674Z,102660.47
2022-10-11T06:48:14.307Z,102661.97
2022-10-11T06:50:59.226Z,102660.31
2022-10-11T06:53:27.841Z,102674.72
2022-10-11T06:55:54.322Z,102670.84
2022-10-11T06:58:20.785Z,102671.16
2022-10-11T07:00:47.350Z,102677.78
2022-10-11T07:03:13.838Z,102673.91
2022-10-11T07:05:40.356Z,102676.97
2022-10-11T07:08:06.827Z,102680.88
2022-10-11T07:10:35.493Z,102685.13
2022-10-11T07:13:02.142Z,102680.69
2022-10-11T07:15:28.588Z,102678.69
2022-10-11T07:17:55.048Z,102685.78
2022-10-11T07:20:21.524Z,102681.88
2022-10-11T07:22:48.152Z,102689.50
2022-10-11T07:25:14.632Z,102686.63
2022-10-11T07:27:41.157Z,102691.34
2022-10-11T07:30:08.033Z,102693.75
2022-10-11T07:32:34.500Z,102697.81
2022-10-11T07:35:01.160Z,102699.47
2022-10-11T07:37:27.614Z,102695.59
2022-10-11T07:39:54.099Z,102695.41
2022-10-11T07:42:21.944Z,102703.69
2022-10-11T07:44:48.507Z,102708.13
2022-10-11T07:47:15.034Z,102708.63
2022-10-11T07:49:41.492Z,102707.09
2022-10-11T07:52:08.007Z,102701.81
2022-10-11T07:54:34.542Z,102712.16
2022-10-11T07:57:01.056Z,102706.56
2022-10-11T07:59:27.550Z,102713.50
2022-10-11T08:01:54.081Z,102716.06
2022-10-11T08:04:21.408Z,102711.09
2022-10-11T08:06:52.502Z,102713.81
2022-10-11T08:09:19.732Z,102721.06
2022-10-11T08:11:46.239Z,102720.69
2022-10-11T08:14:12.691Z,102726.91
2022-10-11T08:16:39.548Z,102723.66
2022-10-11T08:19:06.496Z,102728.88
2022-10-11T08:21:33.133Z,102724.75
2022-10-11T08:24:02.119Z,102731.84
2022-10-11T08:26:28.664Z,102721.91
2022-10-11T08:28:55.276Z,102730.03
2022-10-11T08:31:21.825Z,102728.59
2022-10-11T08:33:48.597Z,102724.94
2022-10-11T08:36:15.136Z,102736.94
2022-10-11T08:38:42.224Z,102737.47
2022-10-11T08:41:29.754Z,102743.25
2022-10-11T08:44:14.545Z,102744.59
2022-10-11T08:46:45.487Z,102740.28
2022-10-11T08:49:14.804Z,102745.72
2022-10-11T08:52:13.870Z,102742.94
2022-10-11T08:54:49.441Z,102748.38
2022-10-11T08:57:27.351Z,102739.19
2022-10-11T08:59:56.412Z,102752.56
2022-10-11T09:02:25.745Z,102755.38
2022-10-11T09:04:54.432Z,102744.75
2022-10-11T09:07:49.835Z,102754.63
2022-10-11T09:10:22.256Z,102759.78
2022-10-11T09:13:03.939Z,102749.72
2022-10-11T09:15:49.260Z,102760.34
2022-10-11T09:18:24.858Z,102755.34
2022-10-11T09:21:09.058Z,102765.13
2022-10-11T09:24:08.979Z,102760.47
2022-10-11T09:26:47.625Z,102750.03
2022-10-11T09:29:46.429Z,102759.91
2022-10-11T09:32:16.358Z,102763.09
2022-10-11T09:34:43.506Z,102748.00
2022-10-11T09:37:32.654Z,102754.25
2022-10-11T09:40:35.964Z,102757.72
2022-10-11T09:43:02.416Z,102750.56
2022-10-11T09:45:28.912Z,102746.75
2022-10-11T09:47:59.642Z,102752.97
2022-10-11T09:50:29.572Z,102748.72
2022-10-11T09:53:03.311Z,102748.38
2022-10-11T09:55:36.112Z,102754.72
2022-10-11T09:58:04.830Z,102748.28
2022-10-11T10:00:33.803Z,102746.13
2022-10-11T10:03:04.554Z,102760.88
2022-10-11T10:05:33.728Z,102755.16
2022-10-11T10:08:04.994Z,102757.22
2022-10-11T10:10:34.827Z,102759.06
2022-10-11T10:13:04.414Z,102756.13
2022-10-11T10:15:34.643Z,102751.38
2022-10-11T10:18:01.991Z,102758.97
2022-10-11T10:20:32.320Z,102743.63
2022-10-11T10:23:21.567Z,102753.41
2022-10-11T10:25:51.124Z,102747.28
2022-10-11T10:28:27.084Z,102746.47
2022-10-11T10:30:55.965Z,102753.94
2022-10-11T10:33:25.523Z,102743.56
2022-10-11T10:36:08.504Z,102751.56
2022-10-11T10:38:52.208Z,102750.16
2022-10-11T10:41:19.445Z,102749.75
2022-10-11T10:43:56.189Z,102755.41
2022-10-11T10:46:22.612Z,102745.50
2022-10-11T10:49:48.493Z,102749.75
2022-10-11T10:52:40.894Z,102746.22
2022-10-11T10:55:34.949Z,102746.09
2022-10-11T10:58:41.951Z,102740.81
2022-10-11T11:01:18.836Z,102739.16
2022-10-11T11:04:10.008Z,102736.41
2022-10-11T11:06:55.373Z,102735.16
2022-10-11T11:09:37.790Z,102733.28
2022-10-11T11:12:36.149Z,102738.34
2022-10-11T11:15:10.700Z,102731.59
2022-10-11T11:18:01.716Z,102732.00
2022-10-11T11:20:52.033Z,102724.44
2022-10-11T11:23:21.831Z,102729.72
2022-10-11T11:26:20.179Z,102719.38
2022-10-11T11:29:02.311Z,102718.56
2022-10-11T11:31:47.580Z,102721.06
2022-10-11T11:34:14.054Z,102714.94
2022-10-11T11:36:44.804Z,102707.31
2022-10-11T11:39:23.114Z,102710.88
2022-10-11T11:41:56.957Z,102709.97
2022-10-11T11:44:47.248Z,102707.25
2022-10-11T11:47:33.594Z,102706.22
2022-10-11T11:50:05.643Z,102706.22
2022-10-11T11:52:40.831Z,102697.94
2022-10-11T11:55:20.948Z,102692.03
2022-10-11T11:58:06.971Z,102692.63
2022-10-11T12:00:49.669Z,102688.53
2022-10-11T12:03:28.492Z,102679.13
2022-10-11T12:06:13.328Z,102683.28
2022-10-11T12:08:43.152Z,102669.00
2022-10-11T12:11:21.659Z,102674.44
2022-10-11T12:13:51.967Z,102672.53
2022-10-11T12:16:20.160Z,102665.13
2022-10-11T12:19:01.482Z,102667.81
2022-10-11T12:21:40.454Z,102672.06
2022-10-11T12:24:12.811Z,102675.22
2022-10-11T12:26:54.027Z,102670.25
2022-10-11T12:29:44.116Z,102669.34
2022-10-11T12:32:36.869Z,102675.66
2022-10-11T12:35:31.490Z,102673.84
2022-10-11T12:38:23.766Z,102671.72
2022-10-11T12:41:14.467Z,102665.72
2022-10-11T12:44:27.309Z,102661.66
2022-10-11T12:46:53.709Z,102655.31
2022-10-11T12:49:41.871Z,102665.81
2022-10-11T12:52:17.533Z,102660.16
2022-10-11T12:54:43.949Z,102659.88
2022-10-11T12:57:45.925Z,102659.38
2022-10-11T13:00:20.624Z,102657.56
2022-10-11T13:02:48.404Z,102651.50
2022-10-11T13:05:29.680Z,102650.59
2022-10-11T13:08:02.310Z,102637.13
2022-10-11T13:10:45.181Z,102645.25
2022-10-11T13:13:24.481Z,102640.19
2022-10-11T13:15:54.173Z,102642.63
2022-10-11T13:18:23.821Z,102640.16
2022-10-11T13:20:50.456Z,102635.97
2022-10-11T13:23:27.236Z,102643.22
2022-10-11T13:25:55.294Z,102637.41
2022-10-11T13:28:23.432Z,102644.50
2022-10-11T13:30:54.512Z,102635.22
2022-10-11T13:33:33.135Z,102638.28
2022-10-11T13:36:01.693Z,102626.34
2022-10-11T13:38:33.373Z,102639.66
2022-10-11T13:41:04.223Z,102634.88
2022-10-11T13:43:31.463Z,102630.56
2022-10-11T13:46:00.327Z,102636.66
2022-10-11T13:48:31.687Z,102626.13
2022-10-11T13:51:05.966Z,102627.59
2022-10-11T13:53:33.578Z,102622.56
2022-10-11T13:56:04.256Z,102624.47
2022-10-11T13:58:38.631Z,102626.31
2022-10-11T14:01:16.614Z,102631.34
2022-10-11T14:03:46.098Z,102618.53
2022-10-11T14:06:13.018Z,102623.91
2022-10-11T14:08:55.158Z,102623.94
2022-10-11T14:11:35.532Z,102621.16
2022-10-11T14:14:27.987Z,102610.72
2022-10-11T14:17:04.340Z,102619.97
2022-10-11T14:19:31.061Z,102613.25
2022-10-11T14:21:57.646Z,102605.44
2022-10-11T14:24:24.167Z,102611.31
2022-10-11T14:26:53.898Z,102608.19
2022-10-11T14:29:26.619Z,102610.59
2022-10-11T14:32:04.703Z,102615.28
2022-10-11T14:34:31.539Z,102612.16
2022-10-11T14:36:58.283Z,102598.94
2022-10-11T14:39:27.810Z,102610.22
2022-10-11T14:41:54.675Z,102601.09
2022-10-11T14:44:22.093Z,102603.81
2022-10-11T14:46:50.647Z,102614.13
2022-10-11T14:49:23.042Z,102608.69
2022-10-11T14:51:50.660Z,102610.16
2022-10-11T14:54:20.629Z,102604.56
2022-10-11T14:56:47.087Z,102592.81
2022-10-11T14:59:19.456Z,102608.88
2022-10-11T15:01:51.490Z,102616.53
2022-10-11T15:04:18.714Z,102610.97
2022-10-11T15:06:45.239Z,102603.53
2022-10-11T15:09:11.856Z,102600.19
2022-10-11T15:11:38.823Z,102596.81
2022-10-11T15:14:06.459Z,102593.91
2022-10-11T15:16:33.508Z,102588.09
2022-10-11T15:19:00.034Z,102582.06
2022-10-11T15:21:28.205Z,102590.25
2022-10-11T15:23:55.960Z,102592.56
2022-10-11T15:26:28.366Z,102583.94
2022-10-11T15:28:57.131Z,102589.09
2022-10-11T15:31:23.914Z,102576.28
2022-10-11T15:33:50.570Z,102574.72
2022-10-11T15:36:22.234Z,102575.66
2022-10-11T15:38:48.755Z,102568.22
2022-10-11T15:41:17.107Z,102573.41
2022-10-11T15:43:44.434Z,102567.66
2022-10-11T15:46:18.642Z,102572.69
2022-10-11T15:48:46.293Z,102568.00
2022-10-11T15:51:13.004Z,102557.81
2022-10-11T15:53:39.528Z,102561.03
2022-10-11T15:56:09.688Z,102562.59
2022-10-11T15:58:39.283Z,102559.25
2022-10-11T16:01:09.657Z,102562.47
2022-10-11T16:03:36.366Z,102557.44
2022-10-11T16:06:05.488Z,102559.09
2022-10-11T16:08:33.292Z,102554.19
2022-10-11T16:10:59.828Z,102558.38
2022-10-11T16:13:26.306Z,102563.78
2022-10-11T16:15:52.790Z,102559.81
2022-10-11T16:18:20.879Z,102564.38
2022-10-11T16:20:48.900Z,102568.44
2022-10-11T16:23:15.626Z,102561.34
2022-10-11T16:25:42.367Z,102555.56
2022-10-11T16:28:10.116Z,102564.97
2022-10-11T16:30:43.713Z,102567.97
2022-10-11T16:33:10.259Z,102558.69
2022-10-11T16:35:41.441Z,102568.97
2022-10-11T16:38:08.023Z,102559.72
2022-10-11T16:40:36.032Z,102564.97
2022-10-11T16:43:07.417Z,102562.50
2022-10-11T16:45:35.125Z,102569.03
2022-10-11T16:48:01.926Z,102574.63
2022-10-11T16:50:29.102Z,102579.00
2022-10-11T16:52:56.004Z,102571.34
2022-10-11T16:55:22.967Z,102567.44
2022-10-11T16:57:49.429Z,102565.22
2022-10-11T17:00:16.723Z,102565.09
2022-10-11T17:02:43.323Z,102567.66
2022-10-11T17:05:09.791Z,102564.56
2022-10-11T17:07:36.359Z,102567.16
2022-10-11T17:10:02.953Z,102577.41
2022-10-11T17:12:29.519Z,102571.53
2022-10-11T17:14:56.353Z,102574.75
2022-10-11T17:17:22.883Z,102573.91
2022-10-11T17:19:49.518Z,102575.94
2022-10-11T17:22:18.709Z,102575.31
2022-10-11T17:24:45.935Z,102574.94
2022-10-11T17:27:12.648Z,102572.25
2022-10-11T17:29:39.160Z,102586.00
2022-10-11T17:32:06.041Z,102586.66
2022-10-11T17:34:33.125Z,102585.66
2022-10-11T17:36:59.585Z,102576.16
2022-10-11T17:39:26.083Z,102578.72
2022-10-11T17:41:52.566Z,102580.69
2022-10-11T17:44:19.649Z,102581.81
2022-10-11T17:46:46.591Z,102589.66
2022-10-11T17:49:13.870Z,102590.91
2022-10-11T17:51:41.321Z,102585.25
2022-10-11T17:54:12.537Z,102584.22
2022-10-11T17:56:40.700Z,102589.09
2022-10-11T17:59:08.274Z,102590.59
2022-10-11T18:01:34.871Z,102592.50
2022-10-11T18:04:04.939Z,102593.78
2022-10-11T18:06:38.031Z,102593.38
2022-10-11T18:09:04.792Z,102583.84
2022-10-11T18:11:31.731Z,102582.38
2022-10-11T18:13:58.226Z,102578.59
2022-10-11T18:16:27.292Z,102580.94
2022-10-11T18:18:57.169Z,102592.16
2022-10-11T18:21:33.425Z,102586.69
2022-10-11T18:24:02.331Z,102585.47
2022-10-11T18:26:30.719Z,102583.97
2022-10-11T18:28:58.630Z,102584.84
2022-10-11T18:31:28.328Z,102586.34
2022-10-11T18:33:55.561Z,102576.63
2022-10-11T18:36:24.920Z,102589.31
2022-10-11T18:38:57.117Z,102576.28
2022-10-11T18:41:30.435Z,102587.88
2022-10-11T18:43:59.483Z,102583.66
2022-10-11T18:46:26.774Z,102580.31
2022-10-11T18:48:55.355Z,102575.88
2022-10-11T18:51:27.656Z,102578.19
2022-10-11T18:53:54.899Z,102573.34
2022-10-11T18:56:26.723Z,102574.19
2022-10-11T18:58:54.381Z,102575.56
2022-10-11T19:01:27.093Z,102571.69
2022-10-11T19:03:56.527Z,102582.22
2022-10-11T19:06:26.490Z,102576.78
2022-10-11T19:08:55.631Z,102578.25
2022-10-11T19:11:23.761Z,102575.94
2022-10-11T19:13:56.264Z,102575.53
2022-10-11T19:16:23.391Z,102571.28
2022-10-11T19:18:50.479Z,102566.47
2022-10-11T19:21:17.149Z,102567.09
2022-10-11T19:23:45.657Z,102568.16
2022-10-11T19:26:26.448Z,102571.72
2022-10-11T19:29:01.916Z,102571.31
2022-10-11T19:31:28.932Z,102570.47
2022-10-11T19:33:57.345Z,102568.34
2022-10-11T19:36:24.162Z,102567.09
2022-10-11T19:38:51.336Z,102560.31
2022-10-11T19:41:19.586Z,102566.19
2022-10-11T19:43:46.832Z,102551.88
2022-10-11T19:46:20.134Z,102562.00
2022-10-11T19:48:54.345Z,102548.50
2022-10-11T19:51:25.873Z,102553.97
2022-10-11T19:53:59.956Z,102559.88
2022-10-11T19:56:28.595Z,102566.63
2022-10-11T19:58:55.427Z,102564.09
2022-10-11T20:01:23.981Z,102562.81
2022-10-11T20:03:53.833Z,102557.09
2022-10-11T20:06:21.954Z,102556.06
2022-10-11T20:08:59.822Z,102563.63
2022-10-11T20:11:35.932Z,102559.63
2022-10-11T20:14:02.391Z,102554.78
2022-10-11T20:16:28.999Z,102545.91
2022-10-11T20:18:58.563Z,102558.16
2022-10-11T20:21:26.104Z,102556.22
2022-10-11T20:23:52.942Z,102565.50
2022-10-11T20:26:22.255Z,102562.28
2022-10-11T20:28:55.702Z,102558.94
2022-10-11T20:31:28.200Z,102564.19
2022-10-11T20:33:56.838Z,102555.97
2022-10-11T20:36:26.677Z,102559.53
2022-10-11T20:38:53.205Z,102551.31
2022-10-11T20:41:22.401Z,102564.75
2022-10-11T20:43:54.071Z,102564.75
2022-10-11T20:46:23.004Z,102571.28
2022-10-11T20:48:52.097Z,102576.97
2022-10-11T20:51:18.707Z,102564.09
2022-10-11T20:53:45.672Z,102562.19
2022-10-11T20:56:14.862Z,102573.97
2022-10-11T20:58:42.168Z,102565.75
2022-10-11T21:01:14.121Z,102568.00
2022-10-11T21:03:40.953Z,102570.31
2022-10-11T21:06:07.900Z,102570.13
2022-10-11T21:08:35.596Z,102570.50
2022-10-11T21:11:03.787Z,102571.56
2022-10-11T21:13:30.645Z,102563.97
2022-10-11T21:16:04.378Z,102575.94
2022-10-11T21:18:31.112Z,102571.28
2022-10-11T21:20:57.595Z,102570.84
2022-10-11T21:23:24.087Z,102568.75
2022-10-11T21:25:50.617Z,102568.72
2022-10-11T21:28:18.211Z,102562.34
2022-10-11T21:30:44.683Z,102561.50
2022-10-11T21:33:11.197Z,102559.34
2022-10-11T21:35:40.140Z,102561.63
2022-10-11T21:38:06.656Z,102567.28
2022-10-11T21:40:33.134Z,102563.47
2022-10-11T21:42:59.617Z,102564.25
2022-10-11T21:45:26.102Z,102565.97
2022-10-11T21:47:52.847Z,102564.66
2022-10-11T21:50:19.314Z,102556.66
2022-10-11T21:52:45.784Z,102559.59
2022-10-11T21:55:12.699Z,102559.56
2022-10-11T21:57:42.633Z,102566.66
2022-10-11T22:00:09.795Z,102552.38
2022-10-11T22:02:39.841Z,102555.28
2022-10-11T22:05:06.365Z,102560.28
2022-10-11T22:07:32.825Z,102562.63
2022-10-11T22:09:59.280Z,102559.41
2022-10-11T22:12:25.747Z,102556.66
2022-10-11T22:14:52.282Z,102556.22
2022-10-11T22:17:18.761Z,102552.38
2022-10-11T22:19:45.266Z,102549.00
2022-10-11T22:22:12.039Z,102553.19
2022-10-11T22:24:38.507Z,102548.47
2022-10-11T22:27:05.005Z,102544.06
2022-10-11T22:29:34.184Z,102542.84
2022-10-11T22:32:01.005Z,102541.31
2022-10-11T22:34:31.115Z,102544.44
2022-10-11T22:36:57.587Z,102543.59
2022-10-11T22:39:24.062Z,102542.50
2022-10-11T22:41:50.562Z,102546.69
2022-10-11T22:44:17.015Z,102540.94
2022-10-11T22:46:43.484Z,102541.34
2022-10-11T22:49:09.962Z,102531.84
2022-10-11T22:51:36.452Z,102530.56
2022-10-11T22:54:02.996Z,102537.94
2022-10-11T22:56:29.623Z,102538.28
2022-10-11T22:58:56.148Z,102536.41
2022-10-11T23:01:22.617Z,102533.00
2022-10-11T23:03:50.585Z,102531.06
2022-10-11T23:06:17.862Z,102531.47
2022-10-11T23:08:44.395Z,102528.06
2022-10-11T23:11:11.309Z,102534.56
2022-10-11T23:13:37.829Z,102528.47
2022-10-11T23:16:09.644Z,102547.94
2022-10-11T23:18:36.323Z,102537.94
2022-10-11T23:21:04.235Z,102531.31
2022-10-11T23:23:30.725Z,102527.94
2022-10-11T23:26:12.244Z,102538.63
2022-10-11T23:28:39.095Z,102537.09
2022-10-11T23:31:10.644Z,102543.09
2022-10-11T23:33:37.107Z,102550.50
2022-10-11T23:36:03.780Z,102543.75
2022-10-11T23:38:30.339Z,102535.78
2022-10-11T23:40:56.837Z,102524.75
2022-10-11T23:43:23.737Z,102529.00
2022-10-11T23:45:50.222Z,102521.41
2022-10-11T23:48:16.708Z,102524.88
2022-10-11T23:50:43.258Z,102533.72
2022-10-11T23:53:10.629Z,102528.84
2022-10-11T23:55:37.092Z,102525.53
2022-10-11T23:58:03.545Z,102528.00
